Time;durP1;ratioP1;P1;durP2;ratioP2;P2;SDS_P1;SDS_P2;PMS_P1;PMS_P2;Temp;Humidity;BMP_temperature;BMP_pressure;BME280_temperature;BME280_humidity;BME280_pressure;Samples;Min_cycle;Max_cycle;Signal;HPM_P1;HPM_P2
2023/09/16 00:00:41;;;;;;;;;;;;;;;17.63;nan;100106.69;5009504;28;19955;-84
2023/09/16 00:03:06;;;;;;;;;;;;;;;;;;5031266;28;19913;-84
2023/09/16 00:05:32;;;;;;;;;;;;;;;17.45;nan;100125.25;5030885;28;20016;-84
2023/09/16 00:07:57;;;;;;;;;;;;;;;17.38;nan;100129.75;5033898;28;20410;-85
2023/09/16 00:10:22;;;;;;;;;;;;;;;;;;5023001;28;19956;-84
2023/09/16 00:12:47;;;;;;;;;;;;;;;17.28;nan;100114.16;5019281;28;19967;-85
2023/09/16 00:15:12;;;;;;;;;;;;;;;17.34;nan;100118.66;5012941;28;19984;-84
2023/09/16 00:17:37;;;;;;;;;;;;;;;;;;5034726;28;19917;-84
2023/09/16 00:20:15;;;;;;;;;;;;;;;17.49;nan;100105.06;5016177;28;19971;-84
2023/09/16 00:22:41;;;;;;;;;;;;;;;;;;5035687;28;19917;-84
2023/09/16 00:25:08;;;;;;;;;;;;;;;17.47;nan;100117.00;5034724;28;20203;-84
2023/09/16 00:27:33;;;;;;;;;;;;;;;17.41;nan;100108.78;5027392;28;19917;-84
2023/09/16 00:29:59;;;;;;;;;;;;;;;;;;5034530;28;20433;-84
2023/09/16 00:32:24;;;;;;;;;;;;;;;17.29;nan;100104.28;5035855;28;19924;-84
2023/09/16 00:34:51;;;;;;;;;;;;;;;17.29;nan;100120.31;5042739;28;19913;-84
2023/09/16 00:37:16;;;;;;;;;;;;;;;17.30;nan;100096.03;5035116;28;19979;-84
2023/09/16 00:39:41;;;;;;;;;;;;;;;17.26;nan;100094.81;5028138;28;19921;-84
2023/09/16 00:42:06;;;;;;;;;;;;;;;17.32;nan;100104.66;5031145;28;20289;-85
2023/09/16 00:44:31;;;;;;;;;;;;;;;17.38;nan;100090.50;5016758;28;20339;-84
2023/09/16 00:46:57;;;;;;;;;;;;;;;17.41;nan;100103.44;5016029;28;19997;-84
2023/09/16 00:49:22;;;;;;;;;;;;;;;17.41;nan;100091.94;5032212;28;19934;-84
2023/09/16 00:51:47;;;;;;;;;;;;;;;17.38;nan;100109.19;5007460;28;20096;-85
2023/09/16 00:54:12;;;;;;;;;;;;;;;17.33;nan;100100.16;5023098;28;20003;-84
2023/09/16 00:56:38;;;;;;;;;;;;;;;17.30;nan;100095.22;5032830;28;20259;-84
2023/09/16 00:59:04;;;;;;;;;;;;;;;17.26;nan;100088.66;5032345;28;20213;-84
2023/09/16 01:01:30;;;;;;;;;;;;;;;17.23;nan;100089.88;5006927;28;20383;-84
2023/09/16 01:03:56;;;;;;;;;;;;;;;17.26;nan;100084.13;5029179;28;19959;-84
2023/09/16 01:06:21;;;;;;;;;;;;;;;17.27;nan;100085.75;5025644;28;20133;-84
2023/09/16 01:08:47;;;;;;;;;;;;;;;17.32;nan;100082.47;5030652;28;19971;-84
2023/09/16 01:11:12;;;;;;;;;;;;;;;17.34;nan;100086.59;5031891;28;19913;-84
2023/09/16 01:13:39;;;;;;;;;;;;;;;17.38;nan;100081.66;5010763;28;19913;-84
2023/09/16 01:16:04;;;;;;;;;;;;;;;17.41;nan;100087.41;5027711;28;19948;-84
2023/09/16 01:18:34;;;;;;;;;;;;;;;17.46;nan;100089.44;5013186;28;20380;-84
2023/09/16 01:21:00;;;;;;;;;;;;;;;17.49;nan;100098.91;5031537;28;20425;-84
2023/09/16 01:23:25;;;;;;;;;;;;;;;17.41;nan;100087.41;5029814;28;19920;-84
2023/09/16 01:25:50;;;;;;;;;;;;;;;17.36;nan;100105.09;5031013;28;19917;-85
2023/09/16 01:28:16;;;;;;;;;;;;;;;17.26;nan;100094.81;5027224;28;19996;-84
2023/09/16 01:30:44;;;;;;;;;;;;;;;17.20;nan;100091.09;5035298;28;19917;-84
2023/09/16 01:33:13;;;;;;;;;;;;;;;17.12;nan;100093.19;5030869;28;19917;-84
2023/09/16 01:35:39;;;;;;;;;;;;;;;17.08;nan;100098.09;5022995;28;19913;-85
2023/09/16 01:38:06;;;;;;;;;;;;;;;17.11;nan;100086.19;5029658;28;20003;-84
2023/09/16 01:40:32;;;;;;;;;;;;;;;17.20;nan;100095.63;5031278;28;20390;-84
2023/09/16 01:42:58;;;;;;;;;;;;;;;17.19;nan;100086.81;5014387;28;19959;-84
2023/09/16 01:45:24;;;;;;;;;;;;;;;17.11;nan;100097.72;5035492;28;19988;-84
2023/09/16 01:47:49;;;;;;;;;;;;;;;17.07;nan;100095.66;5033589;28;19917;-84
2023/09/16 01:50:14;;;;;;;;;;;;;;;17.06;nan;100088.63;5032602;28;20370;-84
2023/09/16 01:52:39;;;;;;;;;;;;;;;17.09;nan;100089.06;5032811;28;19920;-84
2023/09/16 01:55:05;;;;;;;;;;;;;;;17.12;nan;100094.00;5032470;28;19917;-84
2023/09/16 01:57:30;;;;;;;;;;;;;;;17.17;nan;100080.03;5039633;28;19971;-84
2023/09/16 01:59:55;;;;;;;;;;;;;;;;;;5038319;28;19919;-84
2023/09/16 02:02:20;;;;;;;;;;;;;;;17.22;nan;100096.25;5019850;28;19983;-84
2023/09/16 02:04:46;;;;;;;;;;;;;;;17.22;nan;100092.75;5032486;28;20298;-84
2023/09/16 02:07:11;;;;;;;;;;;;;;;17.19;nan;100102.03;5033955;28;19928;-84
2023/09/16 02:09:36;;;;;;;;;;;;;;;17.20;nan;100091.09;5040108;28;19924;-85
2023/09/16 02:12:02;;;;;;;;;;;;;;;17.20;nan;100109.00;5033947;28;19959;-84
2023/09/16 02:14:27;;;;;;;;;;;;;;;17.17;nan;100096.06;5015085;28;19928;-84
2023/09/16 02:16:52;;;;;;;;;;;;;;;17.17;nan;100101.41;5032491;28;19913;-83
2023/09/16 02:19:17;;;;;;;;;;;;;;;17.14;nan;100102.63;5013936;28;20298;-84
2023/09/16 02:21:43;;;;;;;;;;;;;;;17.15;nan;100120.28;5013914;28;20244;-84
2023/09/16 02:24:08;;;;;;;;;;;;;;;17.13;nan;100126.88;5031509;28;20197;-84
2023/09/16 02:26:33;;;;;;;;;;;;;;;17.11;nan;100119.06;5014039;28;19918;-84
2023/09/16 02:28:58;;;;;;;;;;;;;;;;;;5013782;28;20297;-84
2023/09/16 02:31:26;;;;;;;;;;;;;;;17.08;nan;100114.13;5030920;28;19963;-84
2023/09/16 02:33:55;;;;;;;;;;;;;;;17.06;nan;100126.03;5026081;28;19920;-84
2023/09/16 02:36:20;;;;;;;;;;;;;;;16.99;nan;100118.00;5024406;28;19924;-84
2023/09/16 02:38:45;;;;;;;;;;;;;;;16.92;nan;100126.03;5035166;28;19913;-84
2023/09/16 02:41:15;;;;;;;;;;;;;;;16.80;nan;100118.81;5035431;28;20318;-84
2023/09/16 02:43:40;;;;;;;;;;;;;;;16.69;nan;100115.69;5016421;28;19917;-84
2023/09/16 02:46:05;;;;;;;;;;;;;;;16.61;nan;100123.84;5015836;28;20384;-84
2023/09/16 02:48:30;;;;;;;;;;;;;;;16.56;nan;100120.97;5015337;28;20306;-84
2023/09/16 02:50:55;;;;;;;;;;;;;;;16.46;nan;100132.03;5021467;28;19947;-84
2023/09/16 02:53:20;;;;;;;;;;;;;;;16.41;nan;100133.66;5017236;28;20310;-84
2023/09/16 02:55:46;;;;;;;;;;;;;;;16.35;nan;100125.44;5035250;28;19921;-84
2023/09/16 02:58:11;;;;;;;;;;;;;;;16.29;nan;100128.88;5034577;28;19917;-84
2023/09/16 03:00:36;;;;;;;;;;;;;;;16.22;nan;100124.56;5033443;28;19999;-84
2023/09/16 03:03:02;;;;;;;;;;;;;;;16.14;nan;100126.38;5016263;28;20027;-84
2023/09/16 03:05:28;;;;;;;;;;;;;;;16.10;nan;100143.78;5034064;28;19921;-84
2023/09/16 03:07:53;;;;;;;;;;;;;;;16.08;nan;100124.47;5035305;28;20000;-84
2023/09/16 03:10:19;;;;;;;;;;;;;;;16.07;nan;100132.69;5035424;28;19917;-84
2023/09/16 03:12:44;;;;;;;;;;;;;;;16.02;nan;100135.13;5036736;28;20007;-84
2023/09/16 03:15:10;;;;;;;;;;;;;;;15.96;nan;100125.25;5035065;28;19917;-84
2023/09/16 03:17:35;;;;;;;;;;;;;;;15.91;nan;100131.97;5021848;28;19917;-84
2023/09/16 03:20:00;;;;;;;;;;;;;;;15.91;nan;100133.84;5032962;28;19913;-85
2023/09/16 03:22:25;;;;;;;;;;;;;;;15.91;nan;100133.84;5024486;28;19924;-84
2023/09/16 03:24:50;;;;;;;;;;;;;;;15.90;nan;100126.88;5017438;28;19953;-84
2023/09/16 03:27:15;;;;;;;;;;;;;;;15.88;nan;100129.72;5036512;28;19979;-84
2023/09/16 03:29:41;;;;;;;;;;;;;;;15.85;nan;100119.44;5020009;28;20160;-84
2023/09/16 03:32:06;;;;;;;;;;;;;;;15.83;nan;100120.66;5041491;28;19917;-83
2023/09/16 03:34:33;;;;;;;;;;;;;;;15.81;nan;100114.72;5038037;28;20037;-84
2023/09/16 03:36:59;;;;;;;;;;;;;;;15.79;nan;100108.75;5023765;28;19917;-84
2023/09/16 03:39:24;;;;;;;;;;;;;;;15.76;nan;100104.63;5040046;28;19940;-84
2023/09/16 03:41:49;;;;;;;;;;;;;;;15.69;nan;100103.72;5037298;28;19944;-84
2023/09/16 03:44:15;;;;;;;;;;;;;;;15.64;nan;100100.84;5036257;28;20409;-84
2023/09/16 03:46:40;;;;;;;;;;;;;;;15.58;nan;100096.28;5036318;28;19937;-84
2023/09/16 03:49:05;;;;;;;;;;;;;;;15.53;nan;100082.72;5017032;28;20369;-83
2023/09/16 03:51:31;;;;;;;;;;;;;;;15.49;nan;100092.91;5038478;28;19912;-84
2023/09/16 03:53:56;;;;;;;;;;;;;;;15.47;nan;100100.31;5024087;28;20378;-84
2023/09/16 03:56:21;;;;;;;;;;;;;;;15.40;nan;100094.94;5018647;28;20263;-83
2023/09/16 03:58:46;;;;;;;;;;;;;;;15.35;nan;100084.03;5019725;28;19940;-84
2023/09/16 04:01:11;;;;;;;;;;;;;;;15.32;nan;100088.91;5012243;28;19917;-84
2023/09/16 04:03:37;;;;;;;;;;;;;;;15.27;nan;100089.50;5035443;28;20457;-83
2023/09/16 04:06:03;;;;;;;;;;;;;;;;;;5018537;28;19921;-84
2023/09/16 04:08:29;;;;;;;;;;;;;;;15.21;nan;100084.94;5019285;28;20363;-84
2023/09/16 04:10:54;;;;;;;;;;;;;;;15.17;nan;100089.00;5035098;28;19913;-84
2023/09/16 04:13:21;;;;;;;;;;;;;;;15.13;nan;100077.91;5035110;28;19919;-84
2023/09/16 04:15:47;;;;;;;;;;;;;;;15.10;nan;100072.97;5015976;28;20019;-84
2023/09/16 04:18:12;;;;;;;;;;;;;;;15.07;nan;100074.19;5028597;28;19917;-84
2023/09/16 04:20:37;;;;;;;;;;;;;;;15.05;nan;100075.38;5015287;28;20011;-85
2023/09/16 04:23:02;;;;;;;;;;;;;;;15.01;nan;100074.13;5035464;28;19913;-84
2023/09/16 04:25:27;;;;;;;;;;;;;;;14.96;nan;100060.56;5035111;28;20375;-84
2023/09/16 04:27:52;;;;;;;;;;;;;;;14.91;nan;100068.31;5030478;28;19917;-84
2023/09/16 04:30:19;;;;;;;;;;;;;;;;;;5016830;28;20136;-84
2023/09/16 04:32:44;;;;;;;;;;;;;;;;;;5013101;28;19976;-84
2023/09/16 04:35:10;;;;;;;;;;;;;;;;;;5034933;28;19920;-84
2023/09/16 04:37:36;;;;;;;;;;;;;;;14.82;nan;100054.28;5034621;28;19913;-84
2023/09/16 04:40:05;;;;;;;;;;;;;;;14.81;nan;100069.44;5010829;28;19917;-84
2023/09/16 04:42:30;;;;;;;;;;;;;;;14.79;nan;100066.16;5030580;28;19927;-84
2023/09/16 04:44:55;;;;;;;;;;;;;;;;;;5017226;28;20281;-85
2023/09/16 04:47:21;;;;;;;;;;;;;;;;;;5035086;28;20477;-85
2023/09/16 04:49:48;;;;;;;;;;;;;;;14.71;nan;100057.47;5009504;28;19913;-84
2023/09/16 04:52:13;;;;;;;;;;;;;;;14.72;nan;100059.94;5034631;28;19940;-84
2023/09/16 04:54:38;;;;;;;;;;;;;;;14.71;nan;100065.47;5015280;28;20367;-84
2023/09/16 04:57:03;;;;;;;;;;;;;;;;;;5035516;28;19928;-85
2023/09/16 04:59:32;;;;;;;;;;;;;;;;;;5022034;28;19925;-84
2023/09/16 05:01:57;;;;;;;;;;;;;;;14.73;nan;100048.28;5020957;28;19959;-84
2023/09/16 05:04:23;;;;;;;;;;;;;;;14.74;nan;100041.94;5035238;28;19917;-84
2023/09/16 05:06:48;;;;;;;;;;;;;;;14.75;nan;100037.44;5036973;28;19925;-84
2023/09/16 05:09:13;;;;;;;;;;;;;;;14.73;nan;100034.13;5019094;28;20293;-84
2023/09/16 05:11:38;;;;;;;;;;;;;;;14.72;nan;100048.47;5024997;28;20393;-84
2023/09/16 05:14:03;;;;;;;;;;;;;;;;;;5036575;28;19913;-84
2023/09/16 05:16:28;;;;;;;;;;;;;;;;;;5010719;28;19939;-85
2023/09/16 05:18:53;;;;;;;;;;;;;;;;;;5014187;28;19991;-84
2023/09/16 05:21:18;;;;;;;;;;;;;;;14.78;nan;100031.75;5035596;28;19916;-85
2023/09/16 05:23:44;;;;;;;;;;;;;;;14.81;nan;100036.69;5017535;28;19920;-85
2023/09/16 05:26:12;;;;;;;;;;;;;;;;;;5035347;28;19917;-84
2023/09/16 05:28:37;;;;;;;;;;;;;;;;;;5036037;28;19917;-84
2023/09/16 05:31:03;;;;;;;;;;;;;;;;;;5035859;28;19917;-84
2023/09/16 05:33:28;;;;;;;;;;;;;;;;;;5020513;28;19924;-84
2023/09/16 05:35:54;;;;;;;;;;;;;;;14.93;nan;100040.47;5041731;28;20183;-84
2023/09/16 05:38:19;;;;;;;;;;;;;;;14.97;nan;100047.06;5025179;28;19917;-84
2023/09/16 05:40:44;;;;;;;;;;;;;;;15.01;nan;100042.97;5021846;28;19916;-84
2023/09/16 05:43:09;;;;;;;;;;;;;;;;;;5020523;28;19944;-84
2023/09/16 05:45:36;;;;;;;;;;;;;;;15.06;nan;100061.03;5019477;28;19917;-84
2023/09/16 05:48:02;;;;;;;;;;;;;;;;;;5022346;28;20000;-84
2023/09/16 05:50:27;;;;;;;;;;;;;;;;;;5005374;28;19917;-84
2023/09/16 05:52:52;;;;;;;;;;;;;;;15.08;nan;100062.50;5036971;28;19913;-85
2023/09/16 05:55:17;;;;;;;;;;;;;;;15.28;nan;100070.66;5038971;28;20003;-84
2023/09/16 05:57:43;;;;;;;;;;;;;;;15.76;nan;100098.47;5017265;28;19913;-84
2023/09/16 06:00:08;;;;;;;;;;;;;;;16.36;nan;100096.91;5035194;28;19928;-84
2023/09/16 06:02:38;;;;;;;;;;;;;;;17.00;nan;100105.50;5016401;28;20386;-84
2023/09/16 06:05:04;;;;;;;;;;;;;;;17.66;nan;100105.44;5035534;28;19920;-84
2023/09/16 06:07:29;;;;;;;;;;;;;;;18.28;nan;100118.47;5000999;28;19917;-84
2023/09/16 06:09:54;;;;;;;;;;;;;;;18.81;nan;100119.06;5014705;28;20263;-85
2023/09/16 06:12:19;;;;;;;;;;;;;;;19.28;nan;100124.06;5034175;28;19913;-84
2023/09/16 06:14:45;;;;;;;;;;;;;;;19.76;nan;100141.41;4999949;28;20004;-85
2023/09/16 06:17:10;;;;;;;;;;;;;;;20.14;nan;100135.84;5017011;28;19917;-85
2023/09/16 06:19:37;;;;;;;;;;;;;;;20.41;nan;100149.78;5018017;28;19916;-85
2023/09/16 06:22:03;;;;;;;;;;;;;;;20.59;nan;100151.66;5016749;28;19920;-85
2023/09/16 06:24:28;;;;;;;;;;;;;;;20.73;nan;100155.78;5026422;28;19913;-85
2023/09/16 06:26:54;;;;;;;;;;;;;;;20.85;nan;100165.78;5024419;28;19922;-85
2023/09/16 06:29:19;;;;;;;;;;;;;;;21.11;nan;100159.19;5026621;28;20017;-85
2023/09/16 06:31:44;;;;;;;;;;;;;;;21.11;nan;100169.94;5026321;28;20366;-86
2023/09/16 06:34:09;;;;;;;;;;;;;;;21.18;nan;100170.66;5025117;28;19917;-85
2023/09/16 06:36:42;;;;;;;;;;;;;;;21.36;nan;100162.53;5028620;28;20003;-86
2023/09/16 06:39:09;;;;;;;;;;;;;;;21.34;nan;100175.38;5018689;28;19913;-86
2023/09/16 06:41:35;;;;;;;;;;;;;;;21.50;nan;100170.38;5033094;28;19920;-86
2023/09/16 06:44:00;;;;;;;;;;;;;;;21.81;nan;100170.06;5018815;28;19917;-85
2023/09/16 06:46:25;;;;;;;;;;;;;;;21.98;nan;100163.97;5014158;28;19917;-86
2023/09/16 06:48:50;;;;;;;;;;;;;;;22.06;nan;100160.91;4998353;28;20385;-86
2023/09/16 06:51:16;;;;;;;;;;;;;;;22.12;nan;100170.75;5015152;28;19996;-86
2023/09/16 06:53:41;;;;;;;;;;;;;;;22.14;nan;100174.00;5013596;28;19939;-86
2023/09/16 06:56:06;;;;;;;;;;;;;;;22.19;nan;100187.59;5011693;28;19933;-86
2023/09/16 06:58:31;;;;;;;;;;;;;;;22.33;nan;100176.56;5014393;28;19964;-85
2023/09/16 07:00:57;;;;;;;;;;;;;;;22.12;nan;100176.13;5008553;28;19928;-85
2023/09/16 07:03:22;;;;;;;;;;;;;;;22.40;nan;100182.66;5028161;28;19960;-83
2023/09/16 07:05:48;;;;;;;;;;;;;;;22.65;nan;100185.84;5027204;28;19928;-82
2023/09/16 07:08:13;;;;;;;;;;;;;;;23.20;nan;100180.94;5027982;28;20386;-83
2023/09/16 07:10:38;;;;;;;;;;;;;;;23.59;nan;100183.72;5029485;28;19921;-84
2023/09/16 07:13:04;;;;;;;;;;;;;;;23.67;nan;100181.44;5036457;28;21059;-84
2023/09/16 07:15:29;;;;;;;;;;;;;;;23.85;nan;100188.47;5030614;28;19967;-82
2023/09/16 07:17:54;;;;;;;;;;;;;;;24.03;nan;100194.69;5032556;28;19917;-83
2023/09/16 07:20:19;;;;;;;;;;;;;;;24.37;nan;100200.81;5031191;28;20000;-84
2023/09/16 07:22:44;;;;;;;;;;;;;;;24.89;nan;100200.34;5039025;28;19995;-83
2023/09/16 07:25:10;;;;;;;;;;;;;;;25.09;nan;100202.44;5032223;28;19921;-83
2023/09/16 07:27:35;;;;;;;;;;;;;;;25.54;nan;100203.94;5037477;28;19917;-84
2023/09/16 07:30:00;;;;;;;;;;;;;;;26.03;nan;100205.66;5017421;28;20382;-84
2023/09/16 07:32:26;;;;;;;;;;;;;;;26.49;nan;100214.03;5034366;28;19917;-84
2023/09/16 07:34:51;;;;;;;;;;;;;;;26.98;nan;100215.53;5033049;28;19909;-83
2023/09/16 07:37:16;;;;;;;;;;;;;;;27.48;nan;100219.41;5023029;28;19917;-83
2023/09/16 07:39:44;;;;;;;;;;;;;;;27.89;nan;100225.69;5028717;28;20443;-83
2023/09/16 07:42:10;;;;;;;;;;;;;;;28.07;nan;100221.53;5033058;28;20441;-84
2023/09/16 07:44:35;;;;;;;;;;;;;;;27.82;nan;100224.31;5033580;28;19913;-84
2023/09/16 07:47:00;;;;;;;;;;;;;;;27.76;nan;100231.63;5032149;28;19921;-83
2023/09/16 07:49:25;;;;;;;;;;;;;;;27.94;nan;100227.56;5015312;28;19913;-83
2023/09/16 07:51:50;;;;;;;;;;;;;;;28.21;nan;100226.41;5014635;28;19917;-83
2023/09/16 07:54:16;;;;;;;;;;;;;;;28.56;nan;100239.91;5032081;28;19912;-83
2023/09/16 07:56:41;;;;;;;;;;;;;;;28.93;nan;100240.53;5031311;28;19913;-83
2023/09/16 07:59:06;;;;;;;;;;;;;;;29.14;nan;100242.06;5029082;28;20011;-83
2023/09/16 08:01:31;;;;;;;;;;;;;;;29.38;nan;100238.63;5032544;28;19921;-83
2023/09/16 08:03:56;;;;;;;;;;;;;;;29.63;nan;100251.25;5032699;28;20337;-83
2023/09/16 08:06:23;;;;;;;;;;;;;;;29.88;nan;100252.13;5032367;28;19941;-83
2023/09/16 08:08:49;;;;;;;;;;;;;;;30.14;nan;100250.78;5014815;28;20112;-84
2023/09/16 08:11:14;;;;;;;;;;;;;;;30.31;nan;100261.25;5041054;28;19927;-81
2023/09/16 08:13:40;;;;;;;;;;;;;;;30.49;nan;100246.06;5028729;28;19920;-82
2023/09/16 08:16:05;;;;;;;;;;;;;;;30.66;nan;100261.94;5031284;28;20188;-83
2023/09/16 08:18:30;;;;;;;;;;;;;;;30.87;nan;100267.97;5031073;28;19913;-82
2023/09/16 08:20:55;;;;;;;;;;;;;;;31.15;nan;100262.66;5011520;28;19917;-82
2023/09/16 08:23:20;;;;;;;;;;;;;;;31.31;nan;100256.66;5031338;28;19916;-83
2023/09/16 08:25:46;;;;;;;;;;;;;;;31.06;nan;100266.06;5035134;28;20063;-83
2023/09/16 08:28:11;;;;;;;;;;;;;;;31.30;nan;100259.72;5033597;28;19917;-83
2023/09/16 08:30:36;;;;;;;;;;;;;;;31.35;nan;100256.09;5034249;28;20385;-83
2023/09/16 08:33:01;;;;;;;;;;;;;;;31.61;nan;100268.25;5011874;28;19917;-82
2023/09/16 08:35:27;;;;;;;;;;;;;;;31.73;nan;100267.78;5014062;28;19961;-83
2023/09/16 08:37:54;;;;;;;;;;;;;;;31.85;nan;100270.84;5032529;28;19948;-83
2023/09/16 08:40:20;;;;;;;;;;;;;;;32.30;nan;100268.41;5036075;28;19923;-82
2023/09/16 08:42:49;;;;;;;;;;;;;;;32.78;nan;100280.88;5031724;28;19999;-83
2023/09/16 08:45:15;;;;;;;;;;;;;;;33.26;nan;100287.78;5020371;28;19921;-83
2023/09/16 08:47:42;;;;;;;;;;;;;;;33.67;nan;100278.59;5031934;28;19998;-83
2023/09/16 08:50:08;;;;;;;;;;;;;;;33.80;nan;100289.50;5011841;28;19921;-83
2023/09/16 08:52:46;;;;;;;;;;;;;;;34.18;nan;100293.72;5031468;28;20011;-83
2023/09/16 08:55:13;;;;;;;;;;;;;;;34.39;nan;100294.78;5032431;28;20003;-82
2023/09/16 08:57:39;;;;;;;;;;;;;;;34.41;nan;100287.03;5024314;28;19917;-83
2023/09/16 09:00:05;;;;;;;;;;;;;;;34.45;nan;100281.75;5039110;28;19924;-82
2023/09/16 09:02:31;;;;;;;;;;;;;;;34.70;nan;100282.94;5033669;28;19924;-83
2023/09/16 09:04:56;;;;;;;;;;;;;;;35.12;nan;100277.88;5033039;28;19917;-83
2023/09/16 09:07:24;;;;;;;;;;;;;;;35.36;nan;100287.56;5017736;28;19928;-83
2023/09/16 09:09:49;;;;;;;;;;;;;;;35.60;nan;100287.06;5036648;28;20311;-83
2023/09/16 09:12:15;;;;;;;;;;;;;;;35.92;nan;100283.78;5033600;28;19928;-83
2023/09/16 09:14:41;;;;;;;;;;;;;;;35.92;nan;100289.28;5035761;28;19928;-84
2023/09/16 09:17:08;;;;;;;;;;;;;;;36.33;nan;100276.84;5019977;28;19923;-83
2023/09/16 09:19:34;;;;;;;;;;;;;;;36.75;nan;100284.41;5035674;28;20298;-84
2023/09/16 09:21:59;;;;;;;;;;;;;;;36.99;nan;100281.81;5038918;28;19999;-83
2023/09/16 09:24:25;;;;;;;;;;;;;;;36.79;nan;100282.59;5033443;28;19925;-84
2023/09/16 09:26:50;;;;;;;;;;;;;;;36.86;nan;100276.56;5033724;28;20370;-84
2023/09/16 09:29:15;;;;;;;;;;;;;;;36.98;nan;100276.63;5033560;28;19955;-83
2023/09/16 09:31:40;;;;;;;;;;;;;;;36.71;nan;100275.22;5034900;28;19916;-84
2023/09/16 09:34:15;;;;;;;;;;;;;;;36.72;nan;100276.81;5033504;28;19917;-83
2023/09/16 09:36:40;;;;;;;;;;;;;;;36.87;nan;100267.94;5016191;28;19917;-83
2023/09/16 09:39:08;;;;;;;;;;;;;;;36.99;nan;100273.53;5026273;28;19924;-84
2023/09/16 09:41:41;;;;;;;;;;;;;;;36.80;nan;100267.66;5031234;28;20437;-83
2023/09/16 09:44:09;;;;;;;;;;;;;;;37.33;nan;100268.06;5028832;28;19916;-84
2023/09/16 09:46:35;;;;;;;;;;;;;;;37.72;nan;100269.50;5034693;28;19924;-83
2023/09/16 09:49:00;;;;;;;;;;;;;;;37.85;nan;100270.31;5033802;28;20322;-84
2023/09/16 09:51:25;;;;;;;;;;;;;;;37.05;nan;100265.88;5037440;28;19917;-84
2023/09/16 09:53:51;;;;;;;;;;;;;;;36.48;nan;100267.19;5019022;28;19960;-84
2023/09/16 09:56:16;;;;;;;;;;;;;;;35.77;nan;100259.53;5031008;28;19925;-84
2023/09/16 09:58:41;;;;;;;;;;;;;;;35.89;nan;100258.84;5030228;28;20290;-84
2023/09/16 10:01:07;;;;;;;;;;;;;;;35.97;nan;100249.78;5033922;28;19917;-83
2023/09/16 10:03:33;;;;;;;;;;;;;;;36.96;nan;100259.59;5030863;28;19924;-84
2023/09/16 10:05:58;;;;;;;;;;;;;;;37.56;nan;100249.22;5030903;28;19925;-84
2023/09/16 10:08:24;;;;;;;;;;;;;;;37.92;nan;100251.25;5030037;28;19917;-84
2023/09/16 10:10:50;;;;;;;;;;;;;;;38.17;nan;100260.38;5033762;28;19967;-84
2023/09/16 10:13:16;;;;;;;;;;;;;;;37.83;nan;100265.16;5031247;28;19978;-84
2023/09/16 10:15:41;;;;;;;;;;;;;;;37.81;nan;100261.13;5029737;28;20366;-84
2023/09/16 10:18:07;;;;;;;;;;;;;;;38.04;nan;100264.28;5030593;28;20337;-84
2023/09/16 10:20:35;;;;;;;;;;;;;;;38.61;nan;100271.66;5020712;28;19924;-83
2023/09/16 10:23:00;;;;;;;;;;;;;;;39.36;nan;100266.78;5022412;28;19917;-84
2023/09/16 10:25:27;;;;;;;;;;;;;;;39.23;nan;100274.28;5035843;28;20346;-85
2023/09/16 10:28:06;;;;;;;;;;;;;;;38.69;nan;100269.13;5034487;28;19920;-84
2023/09/16 10:30:32;;;;;;;;;;;;;;;37.75;nan;100260.53;5031411;28;19917;-84
2023/09/16 10:33:01;;;;;;;;;;;;;;;37.35;nan;100261.09;5034675;28;20349;-85
2023/09/16 10:35:30;;;;;;;;;;;;;;;37.22;nan;100261.38;5033208;28;19912;-86
2023/09/16 10:37:57;;;;;;;;;;;;;;;38.22;nan;100260.16;5014526;28;19913;-86
2023/09/16 10:40:23;;;;;;;;;;;;;;;38.70;nan;100262.44;5043151;28;19920;-85
2023/09/16 10:42:48;;;;;;;;;;;;;;;39.18;nan;100257.94;5020150;28;19916;-85
2023/09/16 10:45:15;;;;;;;;;;;;;;;39.43;nan;100255.91;5034853;28;19944;-84
2023/09/16 10:47:41;;;;;;;;;;;;;;;39.83;nan;100247.50;5036909;28;19913;-84
2023/09/16 10:50:06;;;;;;;;;;;;;;;40.20;nan;100251.97;5021094;28;19928;-85
2023/09/16 10:52:34;;;;;;;;;;;;;;;40.71;nan;100240.88;5039102;28;20016;-85
2023/09/16 10:55:03;;;;;;;;;;;;;;;40.55;nan;100250.03;5016034;28;19928;-85
2023/09/16 10:57:36;;;;;;;;;;;;;;;40.03;nan;100244.81;5019696;28;19921;-84
2023/09/16 11:00:03;;;;;;;;;;;;;;;40.19;nan;100230.94;5039179;28;19917;-82
2023/09/16 11:02:42;;;;;;;;;;;;;;;40.07;nan;100224.38;5040569;28;19917;-84
2023/09/16 11:05:07;;;;;;;;;;;;;;;39.99;nan;100222.56;5030477;28;19932;-85
2023/09/16 11:07:33;;;;;;;;;;;;;;;39.80;nan;100225.22;5037863;28;20027;-85
2023/09/16 11:09:59;;;;;;;;;;;;;;;39.75;nan;100222.75;5032776;28;19921;-88
2023/09/16 11:12:25;;;;;;;;;;;;;;;39.74;nan;100233.00;5021836;28;20311;-88
2023/09/16 11:14:50;;;;;;;;;;;;;;;40.46;nan;100229.25;5020207;28;20422;-87
2023/09/16 11:17:16;;;;;;;;;;;;;;;41.06;nan;100249.16;5034543;28;19924;-86
2023/09/16 11:19:42;;;;;;;;;;;;;;;40.74;nan;100232.66;5035943;28;19940;-87
2023/09/16 11:22:08;;;;;;;;;;;;;;;41.25;nan;100242.81;5030555;28;19917;-88
2023/09/16 11:24:34;;;;;;;;;;;;;;;42.07;nan;100237.16;5031321;28;19921;-87
2023/09/16 11:27:00;;;;;;;;;;;;;;;42.82;nan;100230.72;5032295;28;20334;-86
2023/09/16 11:29:26;;;;;;;;;;;;;;;43.10;nan;100240.59;5018241;28;19925;-85
2023/09/16 11:31:53;;;;;;;;;;;;;;;42.82;nan;100230.72;5032805;28;19917;-85
2023/09/16 11:34:19;;;;;;;;;;;;;;;42.85;nan;100220.81;5014494;28;19917;-86
2023/09/16 11:36:48;;;;;;;;;;;;;;;42.48;nan;100223.47;5034196;28;19960;-87
2023/09/16 11:39:18;;;;;;;;;;;;;;;41.87;nan;100225.28;5015414;28;20314;-87
2023/09/16 11:41:44;;;;;;;;;;;;;;;40.84;nan;100222.16;5017595;28;19944;-85
2023/09/16 11:44:10;;;;;;;;;;;;;;;40.33;nan;100212.75;5024357;28;19921;-87
2023/09/16 11:46:36;;;;;;;;;;;;;;;39.56;nan;100212.38;5014019;28;19987;-87
2023/09/16 11:49:04;;;;;;;;;;;;;;;38.52;nan;100214.91;5017997;28;19968;-87
2023/09/16 11:51:30;;;;;;;;;;;;;;;37.51;nan;100202.50;5026845;28;19916;-87
2023/09/16 11:53:56;;;;;;;;;;;;;;;36.70;nan;100197.22;5035148;28;19960;-86
2023/09/16 11:56:23;;;;;;;;;;;;;;;36.11;nan;100192.59;5030290;28;19940;-84
2023/09/16 11:58:48;;;;;;;;;;;;;;;35.37;nan;100195.69;5014271;28;19956;-89
2023/09/16 12:01:18;;;;;;;;;;;;;;;35.06;nan;100185.69;5053908;28;19929;-88
2023/09/16 12:03:44;;;;;;;;;;;;;;;34.32;nan;100189.31;5060862;28;19962;-89
2023/09/16 12:06:10;;;;;;;;;;;;;;;33.92;nan;100186.59;5040523;28;19921;-88
2023/09/16 12:08:35;;;;;;;;;;;;;;;33.22;nan;100177.97;5045536;28;19935;-89
2023/09/16 12:11:00;;;;;;;;;;;;;;;32.84;nan;100172.03;5030577;28;19968;-86
2023/09/16 12:13:29;;;;;;;;;;;;;;;32.62;nan;100164.59;5024706;28;19988;-87
2023/09/16 12:15:54;;;;;;;;;;;;;;;32.23;nan;100158.56;5043876;28;19917;-86
2023/09/16 12:18:20;;;;;;;;;;;;;;;31.86;nan;100160.34;5016477;28;20107;-86
2023/09/16 12:20:46;;;;;;;;;;;;;;;31.79;nan;100154.47;5015405;28;19927;-85
2023/09/16 12:23:11;;;;;;;;;;;;;;;31.75;nan;100150.75;5013992;28;19917;-85
2023/09/16 12:25:40;;;;;;;;;;;;;;;31.53;nan;100152.22;5033204;28;19917;-86
2023/09/16 12:28:05;;;;;;;;;;;;;;;31.14;nan;100147.13;5020378;28;19939;-86
2023/09/16 12:30:30;;;;;;;;;;;;;;;30.99;nan;100145.47;5035273;28;19917;-85
2023/09/16 12:32:56;;;;;;;;;;;;;;;31.04;nan;100137.19;5033658;28;19956;-85
2023/09/16 12:35:21;;;;;;;;;;;;;;;30.98;nan;100132.91;5020264;28;19948;-85
2023/09/16 12:37:47;;;;;;;;;;;;;;;30.85;nan;100120.84;5032846;28;19917;-85
2023/09/16 12:40:12;;;;;;;;;;;;;;;30.57;nan;100121.78;5033234;28;19934;-87
2023/09/16 12:42:38;;;;;;;;;;;;;;;30.39;nan;100132.41;5033400;28;19916;-86
2023/09/16 12:45:03;;;;;;;;;;;;;;;30.22;nan;100132.88;5012264;28;19979;-85
2023/09/16 12:47:29;;;;;;;;;;;;;;;30.06;nan;100134.97;5039535;28;19944;-86
2023/09/16 12:49:54;;;;;;;;;;;;;;;30.03;nan;100123.81;5030035;28;19921;-85
2023/09/16 12:52:20;;;;;;;;;;;;;;;29.77;nan;100121.41;5019973;28;19992;-86
2023/09/16 12:54:46;;;;;;;;;;;;;;;29.70;nan;100120.13;5032403;28;20333;-85
2023/09/16 12:57:12;;;;;;;;;;;;;;;29.72;nan;100115.19;5019849;28;19996;-86
2023/09/16 12:59:37;;;;;;;;;;;;;;;29.71;nan;100106.22;5007479;28;20424;-85
2023/09/16 13:02:03;;;;;;;;;;;;;;;29.60;nan;100105.50;5019266;28;19917;-87